sensor_id;sensor_type;location;lat;lon;timestamp;pressure;altitude;pressure_sealevel;temperature;humidity
10474;BME280;5284;50.446;7.904;2023-02-13T00:04:42;100494.34;;;6.27;100.00
10474;BME280;5284;50.446;7.904;2023-02-13T00:09:45;100482.03;;;6.26;100.00
10474;BME280;5284;50.446;7.904;2023-02-13T00:14:48;100495.16;;;6.29;100.00
10474;BME280;5284;50.446;7.904;2023-02-13T00:19:52;100486.31;;;6.28;100.00
10474;BME280;5284;50.446;7.904;2023-02-13T00:24:55;100484.59;;;6.27;100.00
10474;BME280;5284;50.446;7.904;2023-02-13T00:29:58;100487.22;;;6.29;100.00
10474;BME280;5284;50.446;7.904;2023-02-13T00:35:02;100476.72;;;6.26;100.00
10474;BME280;5284;50.446;7.904;2023-02-13T00:40:06;100473.31;;;6.22;100.00
10474;BME280;5284;50.446;7.904;2023-02-13T00:45:09;100483.00;;;6.23;100.00
10474;BME280;5284;50.446;7.904;2023-02-13T00:50:13;100475.13;;;6.22;100.00
10474;BME280;5284;50.446;7.904;2023-02-13T00:55:16;100473.38;;;6.21;100.00
10474;BME280;5284;50.446;7.904;2023-02-13T01:00:19;100474.22;;;6.21;100.00
10474;BME280;5284;50.446;7.904;2023-02-13T01:05:24;100480.56;;;6.17;100.00
10474;BME280;5284;50.446;7.904;2023-02-13T01:10:28;100485.75;;;6.20;100.00
10474;BME280;5284;50.446;7.904;2023-02-13T01:15:31;100474.31;;;6.20;100.00
10474;BME280;5284;50.446;7.904;2023-02-13T01:20:36;100472.50;;;6.20;100.00
10474;BME280;5284;50.446;7.904;2023-02-13T01:25:39;100470.66;;;6.22;100.00
10474;BME280;5284;50.446;7.904;2023-02-13T01:30:42;100458.47;;;6.18;100.00
10474;BME280;5284;50.446;7.904;2023-02-13T01:35:46;100460.94;;;6.23;100.00
10474;BME280;5284;50.446;7.904;2023-02-13T01:40:51;100447.88;;;6.18;100.00
10474;BME280;5284;50.446;7.904;2023-02-13T01:45:56;100452.47;;;6.13;100.00
10474;BME280;5284;50.446;7.904;2023-02-13T01:51:04;100448.97;;;6.13;100.00
10474;BME280;5284;50.446;7.904;2023-02-13T01:56:12;100452.59;;;6.10;100.00
10474;BME280;5284;50.446;7.904;2023-02-13T02:01:16;100449.06;;;6.10;100.00
10474;BME280;5284;50.446;7.904;2023-02-13T02:06:24;100448.25;;;6.08;100.00
10474;BME280;5284;50.446;7.904;2023-02-13T02:11:31;100441.06;;;6.11;100.00
10474;BME280;5284;50.446;7.904;2023-02-13T02:16:38;100439.28;;;6.12;100.00
10474;BME280;5284;50.446;7.904;2023-02-13T02:22:01;100437.63;;;6.09;100.00
10474;BME280;5284;50.446;7.904;2023-02-13T02:27:49;100440.31;;;6.08;100.00
10474;BME280;5284;50.446;7.904;2023-02-13T02:33:07;100431.09;;;5.95;100.00
10474;BME280;5284;50.446;7.904;2023-02-13T02:38:27;100430.75;;;5.81;100.00
10474;BME280;5284;50.446;7.904;2023-02-13T02:43:46;100434.66;;;5.70;100.00
10474;BME280;5284;50.446;7.904;2023-02-13T02:48:56;100433.28;;;5.58;100.00
10474;BME280;5284;50.446;7.904;2023-02-13T02:54:25;100441.56;;;5.49;100.00
10474;BME280;5284;50.446;7.904;2023-02-13T02:59:49;100440.91;;;5.41;100.00
10474;BME280;5284;50.446;7.904;2023-02-13T03:05:18;100440.28;;;5.35;100.00
10474;BME280;5284;50.446;7.904;2023-02-13T03:10:55;100442.94;;;5.35;100.00
10474;BME280;5284;50.446;7.904;2023-02-13T03:16:18;100447.25;;;5.37;100.00
10474;BME280;5284;50.446;7.904;2023-02-13T03:21:46;100445.56;;;5.35;100.00
10474;BME280;5284;50.446;7.904;2023-02-13T03:27:08;100449.25;;;5.31;100.00
10474;BME280;5284;50.446;7.904;2023-02-13T03:32:20;100455.28;;;5.34;100.00
10474;BME280;5284;50.446;7.904;2023-02-13T03:37:31;100461.44;;;5.35;100.00
10474;BME280;5284;50.446;7.904;2023-02-13T03:43:02;100462.47;;;5.31;100.00
10474;BME280;5284;50.446;7.904;2023-02-13T03:48:08;100462.50;;;5.29;100.00
10474;BME280;5284;50.446;7.904;2023-02-13T03:53:36;100466.09;;;5.27;100.00
10474;BME280;5284;50.446;7.904;2023-02-13T03:58:42;100465.50;;;5.19;100.00
10474;BME280;5284;50.446;7.904;2023-02-13T04:04:07;100470.22;;;5.09;100.00
10474;BME280;5284;50.446;7.904;2023-02-13T04:09:12;100466.16;;;4.99;100.00
10474;BME280;5284;50.446;7.904;2023-02-13T04:14:20;100470.91;;;4.88;100.00
10474;BME280;5284;50.446;7.904;2023-02-13T04:19:25;100467.69;;;4.79;100.00
10474;BME280;5284;50.446;7.904;2023-02-13T04:24:30;100465.38;;;4.68;100.00
10474;BME280;5284;50.446;7.904;2023-02-13T04:29:32;100465.66;;;4.59;100.00
10474;BME280;5284;50.446;7.904;2023-02-13T04:34:36;100464.16;;;4.51;100.00
10474;BME280;5284;50.446;7.904;2023-02-13T04:39:40;100463.63;;;4.40;100.00
10474;BME280;5284;50.446;7.904;2023-02-13T04:44:42;100456.00;;;4.30;100.00
10474;BME280;5284;50.446;7.904;2023-02-13T04:49:45;100445.63;;;4.24;100.00
10474;BME280;5284;50.446;7.904;2023-02-13T04:54:50;100443.28;;;4.13;100.00
10474;BME280;5284;50.446;7.904;2023-02-13T04:59:52;100448.72;;;4.09;100.00
10474;BME280;5284;50.446;7.904;2023-02-13T05:04:56;100450.59;;;4.04;100.00
10474;BME280;5284;50.446;7.904;2023-02-13T05:10:00;100442.84;;;3.98;100.00
10474;BME280;5284;50.446;7.904;2023-02-13T05:15:03;100436.81;;;3.94;100.00
10474;BME280;5284;50.446;7.904;2023-02-13T05:20:06;100448.28;;;3.93;100.00
10474;BME280;5284;50.446;7.904;2023-02-13T05:25:11;100446.63;;;3.89;100.00
10474;BME280;5284;50.446;7.904;2023-02-13T05:30:14;100448.75;;;3.77;100.00
10474;BME280;5284;50.446;7.904;2023-02-13T05:35:17;100451.69;;;3.66;100.00
10474;BME280;5284;50.446;7.904;2023-02-13T05:40:23;100442.25;;;3.56;100.00
10474;BME280;5284;50.446;7.904;2023-02-13T05:45:26;100449.44;;;3.51;100.00
10474;BME280;5284;50.446;7.904;2023-02-13T05:50:29;100453.13;;;3.46;100.00
10474;BME280;5284;50.446;7.904;2023-02-13T05:55:33;100441.97;;;3.35;100.00
10474;BME280;5284;50.446;7.904;2023-02-13T06:00:36;100443.94;;;3.27;100.00
10474;BME280;5284;50.446;7.904;2023-02-13T06:05:39;100457.22;;;3.22;100.00
10474;BME280;5284;50.446;7.904;2023-02-13T06:10:43;100462.53;;;3.21;100.00
10474;BME280;5284;50.446;7.904;2023-02-13T06:15:46;100456.69;;;3.10;100.00
10474;BME280;5284;50.446;7.904;2023-02-13T06:20:49;100452.34;;;3.06;100.00
10474;BME280;5284;50.446;7.904;2023-02-13T06:25:53;100455.13;;;3.01;100.00
10474;BME280;5284;50.446;7.904;2023-02-13T06:30:56;100452.59;;;2.97;100.00
10474;BME280;5284;50.446;7.904;2023-02-13T06:36:00;100448.41;;;2.89;100.00
10474;BME280;5284;50.446;7.904;2023-02-13T06:41:05;100458.25;;;2.82;100.00
10474;BME280;5284;50.446;7.904;2023-02-13T06:46:11;100456.66;;;2.75;100.00
10474;BME280;5284;50.446;7.904;2023-02-13T06:51:14;100454.22;;;2.66;100.00
10474;BME280;5284;50.446;7.904;2023-02-13T06:56:18;100463.97;;;2.61;100.00
10474;BME280;5284;50.446;7.904;2023-02-13T07:01:21;100465.84;;;2.58;100.00
10474;BME280;5284;50.446;7.904;2023-02-13T07:06:24;100473.53;;;2.65;100.00
10474;BME280;5284;50.446;7.904;2023-02-13T07:11:28;100470.53;;;2.82;100.00
10474;BME280;5284;50.446;7.904;2023-02-13T07:16:31;100465.75;;;2.97;100.00
10474;BME280;5284;50.446;7.904;2023-02-13T07:21:34;100470.53;;;3.18;100.00
10474;BME280;5284;50.446;7.904;2023-02-13T07:26:39;100471.75;;;3.38;100.00
10474;BME280;5284;50.446;7.904;2023-02-13T07:31:43;100473.84;;;3.59;100.00
10474;BME280;5284;50.446;7.904;2023-02-13T07:36:46;100474.13;;;3.81;100.00
10474;BME280;5284;50.446;7.904;2023-02-13T07:41:50;100463.78;;;4.05;100.00
10474;BME280;5284;50.446;7.904;2023-02-13T07:46:59;100468.34;;;4.29;100.00
10474;BME280;5284;50.446;7.904;2023-02-13T07:52:02;100469.50;;;4.49;100.00
10474;BME280;5284;50.446;7.904;2023-02-13T07:57:07;100469.75;;;4.69;100.00
10474;BME280;5284;50.446;7.904;2023-02-13T08:02:11;100470.91;;;4.88;100.00
10474;BME280;5284;50.446;7.904;2023-02-13T08:07:16;100464.50;;;4.95;100.00
10474;BME280;5284;50.446;7.904;2023-02-13T08:12:20;100459.50;;;5.14;100.00
10474;BME280;5284;50.446;7.904;2023-02-13T08:17:24;100461.34;;;5.38;100.00
10474;BME280;5284;50.446;7.904;2023-02-13T08:22:27;100468.59;;;5.57;100.00
10474;BME280;5284;50.446;7.904;2023-02-13T08:27:31;100471.72;;;5.68;100.00
10474;BME280;5284;50.446;7.904;2023-02-13T08:32:35;100465.97;;;5.83;100.00
10474;BME280;5284;50.446;7.904;2023-02-13T08:37:54;100477.19;;;5.90;100.00
10474;BME280;5284;50.446;7.904;2023-02-13T08:43:03;100479.09;;;6.09;100.00
10474;BME280;5284;50.446;7.904;2023-02-13T08:48:06;100483.69;;;6.28;100.00
10474;BME280;5284;50.446;7.904;2023-02-13T08:53:09;100482.03;;;6.49;100.00
10474;BME280;5284;50.446;7.904;2023-02-13T08:58:13;100480.00;;;6.55;100.00
10474;BME280;5284;50.446;7.904;2023-02-13T09:03:16;100481.78;;;6.78;100.00
10474;BME280;5284;50.446;7.904;2023-02-13T09:08:20;100493.09;;;6.83;100.00
10474;BME280;5284;50.446;7.904;2023-02-13T09:13:26;100495.38;;;6.92;100.00
10474;BME280;5284;50.446;7.904;2023-02-13T09:18:30;100494.22;;;6.99;100.00
10474;BME280;5284;50.446;7.904;2023-02-13T09:23:34;100489.78;;;7.21;100.00
10474;BME280;5284;50.446;7.904;2023-02-13T09:28:39;100497.09;;;7.36;100.00
10474;BME280;5284;50.446;7.904;2023-02-13T09:33:43;100492.91;;;7.52;100.00
10474;BME280;5284;50.446;7.904;2023-02-13T09:38:47;100489.34;;;7.72;100.00
10474;BME280;5284;50.446;7.904;2023-02-13T09:43:56;100488.63;;;7.89;100.00
10474;BME280;5284;50.446;7.904;2023-02-13T09:49:04;100485.44;;;8.01;100.00
10474;BME280;5284;50.446;7.904;2023-02-13T09:54:14;100484.84;;;8.34;100.00
10474;BME280;5284;50.446;7.904;2023-02-13T09:59:32;100479.69;;;8.50;100.00
10474;BME280;5284;50.446;7.904;2023-02-13T10:04:45;100480.19;;;8.76;100.00
10474;BME280;5284;50.446;7.904;2023-02-13T10:09:55;100482.56;;;9.01;100.00
10474;BME280;5284;50.446;7.904;2023-02-13T10:15:15;100486.16;;;8.81;100.00
10474;BME280;5284;50.446;7.904;2023-02-13T10:20:26;100483.13;;;9.25;100.00
10474;BME280;5284;50.446;7.904;2023-02-13T10:25:43;100485.72;;;9.79;100.00
10474;BME280;5284;50.446;7.904;2023-02-13T10:30:50;100488.13;;;9.67;100.00
10474;BME280;5284;50.446;7.904;2023-02-13T10:35:59;100490.50;;;10.07;100.00
10474;BME280;5284;50.446;7.904;2023-02-13T10:41:15;100475.25;;;10.43;100.00
10474;BME280;5284;50.446;7.904;2023-02-13T10:46:30;100474.25;;;10.61;100.00
10474;BME280;5284;50.446;7.904;2023-02-13T10:51:40;100472.56;;;10.75;100.00
10474;BME280;5284;50.446;7.904;2023-02-13T10:56:54;100472.91;;;11.00;100.00
10474;BME280;5284;50.446;7.904;2023-02-13T11:07:13;100458.56;;;11.63;100.00
10474;BME280;5284;50.446;7.904;2023-02-13T11:12:23;100454.91;;;11.79;100.00
10474;BME280;5284;50.446;7.904;2023-02-13T11:17:30;100460.94;;;12.40;100.00
10474;BME280;5284;50.446;7.904;2023-02-13T11:22:35;100442.59;;;12.48;95.92
10474;BME280;5284;50.446;7.904;2023-02-13T11:27:39;100440.69;;;12.50;90.29
10474;BME280;5284;50.446;7.904;2023-02-13T11:32:56;100436.84;;;12.68;80.70
10474;BME280;5284;50.446;7.904;2023-02-13T11:38:11;100439.03;;;12.75;77.55
10474;BME280;5284;50.446;7.904;2023-02-13T11:43:18;100431.91;;;13.43;77.10
10474;BME280;5284;50.446;7.904;2023-02-13T11:48:22;100425.41;;;13.20;75.70
10474;BME280;5284;50.446;7.904;2023-02-13T11:53:28;100422.03;;;14.21;74.20
10474;BME280;5284;50.446;7.904;2023-02-13T11:58:33;100420.69;;;14.01;69.33
10474;BME280;5284;50.446;7.904;2023-02-13T12:03:39;100408.34;;;13.99;65.43
10474;BME280;5284;50.446;7.904;2023-02-13T12:08:44;100406.06;;;14.68;66.40
10474;BME280;5284;50.446;7.904;2023-02-13T12:13:49;100398.97;;;14.79;63.77
10474;BME280;5284;50.446;7.904;2023-02-13T12:18:56;100395.78;;;15.33;62.86
10474;BME280;5284;50.446;7.904;2023-02-13T12:24:05;100397.72;;;15.32;60.87
10474;BME280;5284;50.446;7.904;2023-02-13T12:29:26;100392.88;;;15.24;58.24
10474;BME280;5284;50.446;7.904;2023-02-13T12:40:51;100367.53;;;15.28;57.08
10474;BME280;5284;50.446;7.904;2023-02-13T12:46:03;100374.75;;;15.96;58.58
10474;BME280;5284;50.446;7.904;2023-02-13T12:51:22;100368.53;;;16.18;57.04
10474;BME280;5284;50.446;7.904;2023-02-13T12:56:45;100358.84;;;15.59;57.86
10474;BME280;5284;50.446;7.904;2023-02-13T13:02:16;100354.19;;;15.03;60.73
10474;BME280;5284;50.446;7.904;2023-02-13T13:07:46;100357.19;;;14.99;62.26
10474;BME280;5284;50.446;7.904;2023-02-13T13:13:05;100348.91;;;14.17;65.87
10474;BME280;5284;50.446;7.904;2023-02-13T13:18:18;100344.69;;;13.64;66.86
10474;BME280;5284;50.446;7.904;2023-02-13T13:23:29;100345.09;;;13.19;70.42
10474;BME280;5284;50.446;7.904;2023-02-13T13:28:38;100343.34;;;13.32;72.90
10474;BME280;5284;50.446;7.904;2023-02-13T13:33:45;100333.00;;;13.13;74.90
10474;BME280;5284;50.446;7.904;2023-02-13T13:38:54;100328.69;;;13.11;74.92
10474;BME280;5284;50.446;7.904;2023-02-13T13:44:13;100332.75;;;12.63;77.79
10474;BME280;5284;50.446;7.904;2023-02-13T13:49:33;100325.38;;;12.67;78.81
10474;BME280;5284;50.446;7.904;2023-02-13T13:54:37;100325.88;;;12.86;77.82
10474;BME280;5284;50.446;7.904;2023-02-13T14:00:23;100315.09;;;12.47;80.51
10474;BME280;5284;50.446;7.904;2023-02-13T14:05:28;100308.06;;;12.32;83.42
10474;BME280;5284;50.446;7.904;2023-02-13T14:16:10;100293.38;;;12.25;83.52
10474;BME280;5284;50.446;7.904;2023-02-13T14:21:21;100307.00;;;12.34;84.17
10474;BME280;5284;50.446;7.904;2023-02-13T14:26:30;100304.34;;;12.20;84.45
10474;BME280;5284;50.446;7.904;2023-02-13T14:31:36;100300.03;;;12.18;86.51
10474;BME280;5284;50.446;7.904;2023-02-13T14:36:42;100289.06;;;12.22;86.55
10474;BME280;5284;50.446;7.904;2023-02-13T14:41:57;100288.13;;;12.10;83.30
10474;BME280;5284;50.446;7.904;2023-02-13T14:47:04;100285.06;;;12.02;83.61
10474;BME280;5284;50.446;7.904;2023-02-13T14:52:16;100280.97;;;11.96;86.29
10474;BME280;5284;50.446;7.904;2023-02-13T14:57:22;100284.81;;;11.92;86.57
10474;BME280;5284;50.446;7.904;2023-02-13T15:02:31;100284.50;;;11.83;85.66
10474;BME280;5284;50.446;7.904;2023-02-13T15:07:39;100284.59;;;11.81;84.70
10474;BME280;5284;50.446;7.904;2023-02-13T15:12:44;100280.41;;;11.77;84.49
10474;BME280;5284;50.446;7.904;2023-02-13T15:17:49;100276.00;;;11.76;84.63
10474;BME280;5284;50.446;7.904;2023-02-13T15:22:52;100269.41;;;11.68;85.48
10474;BME280;5284;50.446;7.904;2023-02-13T15:27:55;100272.38;;;11.63;86.44
10474;BME280;5284;50.446;7.904;2023-02-13T15:33:13;100268.44;;;11.55;85.50
10474;BME280;5284;50.446;7.904;2023-02-13T15:38:19;100273.09;;;11.51;85.18
10474;BME280;5284;50.446;7.904;2023-02-13T15:43:32;100263.72;;;11.44;87.69
10474;BME280;5284;50.446;7.904;2023-02-13T15:48:37;100266.97;;;11.35;90.05
10474;BME280;5284;50.446;7.904;2023-02-13T15:53:49;100273.13;;;11.22;90.25
10474;BME280;5284;50.446;7.904;2023-02-13T15:58:53;100266.41;;;11.01;91.93
10474;BME280;5284;50.446;7.904;2023-02-13T16:04:02;100268.66;;;10.93;93.19
10474;BME280;5284;50.446;7.904;2023-02-13T16:09:05;100276.44;;;10.82;93.37
10474;BME280;5284;50.446;7.904;2023-02-13T16:14:14;100272.88;;;10.67;95.75
10474;BME280;5284;50.446;7.904;2023-02-13T16:19:30;100270.03;;;10.55;98.79
10474;BME280;5284;50.446;7.904;2023-02-13T16:24:35;100268.41;;;10.37;97.93
10474;BME280;5284;50.446;7.904;2023-02-13T16:29:44;100272.97;;;10.20;99.31
10474;BME280;5284;50.446;7.904;2023-02-13T16:34:53;100280.88;;;10.06;98.63
10474;BME280;5284;50.446;7.904;2023-02-13T16:40:31;100288.03;;;9.88;100.00
10474;BME280;5284;50.446;7.904;2023-02-13T16:45:34;100298.91;;;9.68;100.00
10474;BME280;5284;50.446;7.904;2023-02-13T16:50:39;100296.34;;;9.50;100.00
10474;BME280;5284;50.446;7.904;2023-02-13T16:55:42;100303.59;;;9.31;100.00
10474;BME280;5284;50.446;7.904;2023-02-13T17:00:48;100304.22;;;9.02;100.00
10474;BME280;5284;50.446;7.904;2023-02-13T17:05:53;100308.66;;;8.68;100.00
10474;BME280;5284;50.446;7.904;2023-02-13T17:11:04;100302.50;;;8.49;100.00
10474;BME280;5284;50.446;7.904;2023-02-13T17:16:08;100304.28;;;8.11;100.00
10474;BME280;5284;50.446;7.904;2023-02-13T17:21:13;100310.59;;;7.90;100.00
10474;BME280;5284;50.446;7.904;2023-02-13T17:26:15;100317.53;;;7.74;100.00
10474;BME280;5284;50.446;7.904;2023-02-13T17:31:18;100323.13;;;7.68;100.00
10474;BME280;5284;50.446;7.904;2023-02-13T17:36:24;100318.16;;;7.61;100.00
10474;BME280;5284;50.446;7.904;2023-02-13T17:41:27;100319.81;;;7.44;100.00
10474;BME280;5284;50.446;7.904;2023-02-13T17:46:30;100316.28;;;7.25;100.00
10474;BME280;5284;50.446;7.904;2023-02-13T17:51:35;100309.09;;;7.07;100.00
10474;BME280;5284;50.446;7.904;2023-02-13T17:56:40;100307.50;;;6.83;100.00
10474;BME280;5284;50.446;7.904;2023-02-13T18:01:43;100310.09;;;6.63;100.00
10474;BME280;5284;50.446;7.904;2023-02-13T18:06:50;100310.16;;;6.40;100.00
10474;BME280;5284;50.446;7.904;2023-02-13T18:11:53;100315.38;;;6.20;100.00
10474;BME280;5284;50.446;7.904;2023-02-13T18:17:06;100321.50;;;5.99;100.00
10474;BME280;5284;50.446;7.904;2023-02-13T18:22:11;100318.66;;;5.82;100.00
10474;BME280;5284;50.446;7.904;2023-02-13T18:27:15;100324.56;;;5.64;100.00
10474;BME280;5284;50.446;7.904;2023-02-13T18:32:18;100327.84;;;5.48;100.00
10474;BME280;5284;50.446;7.904;2023-02-13T18:37:22;100323.03;;;5.34;100.00
10474;BME280;5284;50.446;7.904;2023-02-13T18:42:25;100326.34;;;5.16;100.00
10474;BME280;5284;50.446;7.904;2023-02-13T18:47:28;100331.91;;;5.07;100.00
10474;BME280;5284;50.446;7.904;2023-02-13T18:52:32;100325.44;;;4.91;100.00
10474;BME280;5284;50.446;7.904;2023-02-13T18:57:35;100331.66;;;4.90;100.00
10474;BME280;5284;50.446;7.904;2023-02-13T19:02:38;100332.50;;;4.91;100.00
10474;BME280;5284;50.446;7.904;2023-02-13T19:07:43;100328.22;;;4.87;100.00
10474;BME280;5284;50.446;7.904;2023-02-13T19:12:47;100336.69;;;4.72;100.00
10474;BME280;5284;50.446;7.904;2023-02-13T19:17:49;100333.13;;;4.73;100.00
10474;BME280;5284;50.446;7.904;2023-02-13T19:22:54;100328.19;;;4.62;100.00
10474;BME280;5284;50.446;7.904;2023-02-13T19:27:57;100320.66;;;4.50;100.00
10474;BME280;5284;50.446;7.904;2023-02-13T19:32:59;100326.91;;;4.48;100.00
10474;BME280;5284;50.446;7.904;2023-02-13T19:38:03;100334.44;;;4.33;100.00
10474;BME280;5284;50.446;7.904;2023-02-13T19:43:06;100332.22;;;4.19;100.00
10474;BME280;5284;50.446;7.904;2023-02-13T19:48:09;100330.66;;;4.14;100.00
10474;BME280;5284;50.446;7.904;2023-02-13T19:53:15;100330.81;;;4.08;100.00
10474;BME280;5284;50.446;7.904;2023-02-13T19:58:17;100341.75;;;3.96;100.00
10474;BME280;5284;50.446;7.904;2023-02-13T20:03:20;100344.72;;;3.85;100.00
10474;BME280;5284;50.446;7.904;2023-02-13T20:08:25;100341.72;;;3.68;100.00
10474;BME280;5284;50.446;7.904;2023-02-13T20:13:27;100347.66;;;3.44;100.00
10474;BME280;5284;50.446;7.904;2023-02-13T20:18:32;100342.56;;;3.38;100.00
10474;BME280;5284;50.446;7.904;2023-02-13T20:23:37;100339.22;;;3.32;100.00
10474;BME280;5284;50.446;7.904;2023-02-13T20:28:41;100343.94;;;3.21;100.00
10474;BME280;5284;50.446;7.904;2023-02-13T20:33:45;100336.22;;;3.13;100.00
10474;BME280;5284;50.446;7.904;2023-02-13T20:38:52;100338.31;;;3.01;100.00
10474;BME280;5284;50.446;7.904;2023-02-13T20:43:56;100339.13;;;3.04;100.00
10474;BME280;5284;50.446;7.904;2023-02-13T20:49:00;100330.94;;;3.15;100.00
10474;BME280;5284;50.446;7.904;2023-02-13T20:54:04;100329.47;;;3.03;100.00
10474;BME280;5284;50.446;7.904;2023-02-13T20:59:07;100334.53;;;2.79;100.00
10474;BME280;5284;50.446;7.904;2023-02-13T21:04:10;100326.16;;;2.62;100.00
10474;BME280;5284;50.446;7.904;2023-02-13T21:09:16;100334.03;;;2.64;100.00
10474;BME280;5284;50.446;7.904;2023-02-13T21:14:19;100323.72;;;2.55;100.00
10474;BME280;5284;50.446;7.904;2023-02-13T21:19:22;100328.22;;;2.50;100.00
10474;BME280;5284;50.446;7.904;2023-02-13T21:24:26;100324.84;;;2.45;100.00
10474;BME280;5284;50.446;7.904;2023-02-13T21:29:29;100329.34;;;2.40;100.00
10474;BME280;5284;50.446;7.904;2023-02-13T21:34:33;100325.09;;;2.34;100.00
10474;BME280;5284;50.446;7.904;2023-02-13T21:39:38;100315.66;;;2.26;100.00
10474;BME280;5284;50.446;7.904;2023-02-13T21:44:41;100320.13;;;2.22;100.00
10474;BME280;5284;50.446;7.904;2023-02-13T21:49:43;100312.47;;;2.12;100.00
10474;BME280;5284;50.446;7.904;2023-02-13T21:54:48;100301.38;;;1.99;100.00
10474;BME280;5284;50.446;7.904;2023-02-13T21:59:50;100306.78;;;1.93;100.00
10474;BME280;5284;50.446;7.904;2023-02-13T22:04:53;100295.63;;;1.82;100.00
10474;BME280;5284;50.446;7.904;2023-02-13T22:09:57;100301.88;;;1.78;100.00
10474;BME280;5284;50.446;7.904;2023-02-13T22:15:00;100302.56;;;1.85;100.00
10474;BME280;5284;50.446;7.904;2023-02-13T22:20:04;100292.25;;;1.76;100.00
10474;BME280;5284;50.446;7.904;2023-02-13T22:25:08;100287.97;;;1.72;100.00
10474;BME280;5284;50.446;7.904;2023-02-13T22:30:12;100294.03;;;1.75;100.00
10474;BME280;5284;50.446;7.904;2023-02-13T22:35:15;100288.03;;;1.69;100.00
10474;BME280;5284;50.446;7.904;2023-02-13T22:40:20;100293.44;;;1.63;100.00
10474;BME280;5284;50.446;7.904;2023-02-13T22:45:22;100305.91;;;1.53;100.00
10474;BME280;5284;50.446;7.904;2023-02-13T22:50:25;100300.78;;;1.48;100.00
10474;BME280;5284;50.446;7.904;2023-02-13T22:55:29;100298.97;;;1.49;100.00
10474;BME280;5284;50.446;7.904;2023-02-13T23:00:34;100297.44;;;1.40;100.00
10474;BME280;5284;50.446;7.904;2023-02-13T23:05:37;100300.78;;;1.46;100.00
10474;BME280;5284;50.446;7.904;2023-02-13T23:10:42;100302.56;;;1.46;100.00
10474;BME280;5284;50.446;7.904;2023-02-13T23:16:10;100305.34;;;1.38;100.00
10474;BME280;5284;50.446;7.904;2023-02-13T23:21:14;100308.06;;;1.34;100.00
10474;BME280;5284;50.446;7.904;2023-02-13T23:26:18;100304.25;;;1.48;100.00
10474;BME280;5284;50.446;7.904;2023-02-13T23:31:21;100303.63;;;1.36;100.00
10474;BME280;5284;50.446;7.904;2023-02-13T23:36:24;100297.81;;;1.22;100.00
10474;BME280;5284;50.446;7.904;2023-02-13T23:41:28;100316.19;;;1.23;100.00
10474;BME280;5284;50.446;7.904;2023-02-13T23:46:31;100316.25;;;1.19;100.00
10474;BME280;5284;50.446;7.904;2023-02-13T23:51:34;100322.28;;;1.24;100.00
10474;BME280;5284;50.446;7.904;2023-02-13T23:56:38;100322.25;;;1.25;100.00
